sensor_id;sensor_type;location;lat;lon;timestamp;P1;durP1;ratioP1;P2;durP2;ratioP2
57331;SDS011;43164;50.908;18.092;2023-12-07T00:00:41;92.30;;;54.60;;
57331;SDS011;43164;50.908;18.092;2023-12-07T00:03:11;92.20;;;44.60;;
57331;SDS011;43164;50.908;18.092;2023-12-07T00:05:39;95.40;;;54.90;;
57331;SDS011;43164;50.908;18.092;2023-12-07T00:08:10;91.70;;;53.40;;
57331;SDS011;43164;50.908;18.092;2023-12-07T00:10:37;87.40;;;44.10;;
57331;SDS011;43164;50.908;18.092;2023-12-07T00:13:04;94.80;;;54.60;;
57331;SDS011;43164;50.908;18.092;2023-12-07T00:15:32;90.00;;;54.00;;
57331;SDS011;43164;50.908;18.092;2023-12-07T00:18:00;93.50;;;44.30;;
57331;SDS011;43164;50.908;18.092;2023-12-07T00:20:29;98.10;;;55.00;;
57331;SDS011;43164;50.908;18.092;2023-12-07T00:22:57;95.20;;;48.60;;
57331;SDS011;43164;50.908;18.092;2023-12-07T00:25:24;98.30;;;57.20;;
57331;SDS011;43164;50.908;18.092;2023-12-07T00:27:52;96.50;;;48.10;;
57331;SDS011;43164;50.908;18.092;2023-12-07T00:30:22;98.50;;;56.80;;
57331;SDS011;43164;50.908;18.092;2023-12-07T00:32:50;99.80;;;51.10;;
57331;SDS011;43164;50.908;18.092;2023-12-07T00:35:17;92.80;;;52.60;;
57331;SDS011;43164;50.908;18.092;2023-12-07T00:37:47;97.40;;;55.90;;
57331;SDS011;43164;50.908;18.092;2023-12-07T00:40:15;99.80;;;47.30;;
57331;SDS011;43164;50.908;18.092;2023-12-07T00:42:42;99.20;;;56.40;;
57331;SDS011;43164;50.908;18.092;2023-12-07T00:45:11;99.10;;;56.60;;
57331;SDS011;43164;50.908;18.092;2023-12-07T00:47:39;89.80;;;44.40;;
57331;SDS011;43164;50.908;18.092;2023-12-07T00:50:06;94.70;;;45.80;;
57331;SDS011;43164;50.908;18.092;2023-12-07T00:52:34;91.60;;;54.30;;
57331;SDS011;43164;50.908;18.092;2023-12-07T00:55:02;98.60;;;58.20;;
57331;SDS011;43164;50.908;18.092;2023-12-07T00:57:30;93.50;;;44.20;;
57331;SDS011;43164;50.908;18.092;2023-12-07T00:59:58;97.00;;;54.50;;
57331;SDS011;43164;50.908;18.092;2023-12-07T01:02:25;93.30;;;55.40;;
57331;SDS011;43164;50.908;18.092;2023-12-07T01:04:53;94.30;;;43.40;;
57331;SDS011;43164;50.908;18.092;2023-12-07T01:07:20;87.30;;;40.60;;
57331;SDS011;43164;50.908;18.092;2023-12-07T01:09:48;98.80;;;55.40;;
57331;SDS011;43164;50.908;18.092;2023-12-07T01:12:16;96.00;;;56.90;;
57331;SDS011;43164;50.908;18.092;2023-12-07T01:14:44;92.70;;;45.90;;
57331;SDS011;43164;50.908;18.092;2023-12-07T01:17:12;89.00;;;42.40;;
57331;SDS011;43164;50.908;18.092;2023-12-07T01:19:40;88.50;;;44.90;;
57331;SDS011;43164;50.908;18.092;2023-12-07T01:22:07;97.40;;;55.60;;
57331;SDS011;43164;50.908;18.092;2023-12-07T01:24:35;97.80;;;57.60;;
57331;SDS011;43164;50.908;18.092;2023-12-07T01:27:02;97.20;;;47.10;;
57331;SDS011;43164;50.908;18.092;2023-12-07T01:29:30;94.30;;;45.10;;
57331;SDS011;43164;50.908;18.092;2023-12-07T01:31:57;95.90;;;53.70;;
57331;SDS011;43164;50.908;18.092;2023-12-07T01:34:25;96.30;;;55.00;;
57331;SDS011;43164;50.908;18.092;2023-12-07T01:36:53;92.80;;;44.80;;
57331;SDS011;43164;50.908;18.092;2023-12-07T01:39:21;94.50;;;54.40;;
57331;SDS011;43164;50.908;18.092;2023-12-07T01:41:49;96.00;;;55.60;;
57331;SDS011;43164;50.908;18.092;2023-12-07T01:44:17;90.90;;;43.80;;
57331;SDS011;43164;50.908;18.092;2023-12-07T01:46:46;92.00;;;54.00;;
57331;SDS011;43164;50.908;18.092;2023-12-07T01:49:14;96.50;;;47.60;;
57331;SDS011;43164;50.908;18.092;2023-12-07T01:51:42;96.30;;;54.40;;
57331;SDS011;43164;50.908;18.092;2023-12-07T01:54:10;90.70;;;44.50;;
57331;SDS011;43164;50.908;18.092;2023-12-07T01:56:38;91.30;;;44.60;;
57331;SDS011;43164;50.908;18.092;2023-12-07T01:59:05;87.80;;;44.20;;
57331;SDS011;43164;50.908;18.092;2023-12-07T02:01:33;95.00;;;54.80;;
57331;SDS011;43164;50.908;18.092;2023-12-07T02:04:01;90.40;;;46.30;;
57331;SDS011;43164;50.908;18.092;2023-12-07T02:06:29;87.50;;;43.40;;
57331;SDS011;43164;50.908;18.092;2023-12-07T02:08:57;94.20;;;54.00;;
57331;SDS011;43164;50.908;18.092;2023-12-07T02:11:24;94.90;;;53.70;;
57331;SDS011;43164;50.908;18.092;2023-12-07T02:13:51;89.70;;;43.60;;
57331;SDS011;43164;50.908;18.092;2023-12-07T02:16:26;89.10;;;42.70;;
57331;SDS011;43164;50.908;18.092;2023-12-07T02:21:56;89.20;;;51.60;;
57331;SDS011;43164;50.908;18.092;2023-12-07T02:24:30;86.80;;;52.20;;
57331;SDS011;43164;50.908;18.092;2023-12-07T02:27:01;87.90;;;40.20;;
57331;SDS011;43164;50.908;18.092;2023-12-07T02:29:28;90.70;;;51.40;;
57331;SDS011;43164;50.908;18.092;2023-12-07T02:31:56;93.90;;;43.70;;
57331;SDS011;43164;50.908;18.092;2023-12-07T02:34:24;88.20;;;41.50;;
57331;SDS011;43164;50.908;18.092;2023-12-07T02:36:52;87.80;;;41.90;;
57331;SDS011;43164;50.908;18.092;2023-12-07T02:39:21;89.70;;;49.70;;
57331;SDS011;43164;50.908;18.092;2023-12-07T02:41:49;90.50;;;50.20;;
57331;SDS011;43164;50.908;18.092;2023-12-07T02:44:17;86.30;;;51.70;;
57331;SDS011;43164;50.908;18.092;2023-12-07T02:46:45;84.90;;;42.80;;
57331;SDS011;43164;50.908;18.092;2023-12-07T02:49:14;83.90;;;50.20;;
57331;SDS011;43164;50.908;18.092;2023-12-07T02:51:41;89.00;;;40.90;;
57331;SDS011;43164;50.908;18.092;2023-12-07T02:54:09;87.60;;;50.30;;
57331;SDS011;43164;50.908;18.092;2023-12-07T02:56:37;85.00;;;43.30;;
57331;SDS011;43164;50.908;18.092;2023-12-07T02:59:04;82.50;;;48.50;;
57331;SDS011;43164;50.908;18.092;2023-12-07T03:01:32;86.70;;;50.30;;
57331;SDS011;43164;50.908;18.092;2023-12-07T03:04:00;82.50;;;40.50;;
57331;SDS011;43164;50.908;18.092;2023-12-07T03:06:28;85.40;;;42.00;;
57331;SDS011;43164;50.908;18.092;2023-12-07T03:08:55;83.40;;;40.70;;
57331;SDS011;43164;50.908;18.092;2023-12-07T03:11:24;86.70;;;48.90;;
57331;SDS011;43164;50.908;18.092;2023-12-07T03:13:51;85.60;;;48.30;;
57331;SDS011;43164;50.908;18.092;2023-12-07T03:16:20;81.80;;;39.20;;
57331;SDS011;43164;50.908;18.092;2023-12-07T03:18:48;85.70;;;49.10;;
57331;SDS011;43164;50.908;18.092;2023-12-07T03:21:16;84.70;;;49.00;;
57331;SDS011;43164;50.908;18.092;2023-12-07T03:23:44;81.80;;;40.60;;
57331;SDS011;43164;50.908;18.092;2023-12-07T03:26:12;84.70;;;49.10;;
57331;SDS011;43164;50.908;18.092;2023-12-07T03:28:40;91.20;;;41.60;;
57331;SDS011;43164;50.908;18.092;2023-12-07T03:31:10;85.80;;;40.90;;
57331;SDS011;43164;50.908;18.092;2023-12-07T03:33:38;88.40;;;48.10;;
57331;SDS011;43164;50.908;18.092;2023-12-07T03:36:10;87.30;;;49.80;;
57331;SDS011;43164;50.908;18.092;2023-12-07T03:38:37;87.00;;;41.00;;
57331;SDS011;43164;50.908;18.092;2023-12-07T03:41:05;85.50;;;49.60;;
57331;SDS011;43164;50.908;18.092;2023-12-07T03:43:32;81.70;;;38.50;;
57331;SDS011;43164;50.908;18.092;2023-12-07T03:46:03;88.60;;;41.40;;
57331;SDS011;43164;50.908;18.092;2023-12-07T03:48:31;80.70;;;39.30;;
57331;SDS011;43164;50.908;18.092;2023-12-07T03:50:58;84.50;;;48.30;;
57331;SDS011;43164;50.908;18.092;2023-12-07T03:53:25;89.80;;;51.50;;
57331;SDS011;43164;50.908;18.092;2023-12-07T03:55:53;84.60;;;49.30;;
57331;SDS011;43164;50.908;18.092;2023-12-07T03:58:21;88.40;;;50.40;;
57331;SDS011;43164;50.908;18.092;2023-12-07T04:00:49;86.10;;;43.30;;
57331;SDS011;43164;50.908;18.092;2023-12-07T04:03:17;90.80;;;42.70;;
57331;SDS011;43164;50.908;18.092;2023-12-07T04:05:45;91.10;;;53.00;;
57331;SDS011;43164;50.908;18.092;2023-12-07T04:08:13;91.70;;;51.80;;
57331;SDS011;43164;50.908;18.092;2023-12-07T04:10:42;92.80;;;42.20;;
57331;SDS011;43164;50.908;18.092;2023-12-07T04:13:10;91.90;;;42.90;;
57331;SDS011;43164;50.908;18.092;2023-12-07T04:15:38;91.70;;;51.50;;
57331;SDS011;43164;50.908;18.092;2023-12-07T04:18:06;90.20;;;51.80;;
57331;SDS011;43164;50.908;18.092;2023-12-07T04:20:35;92.90;;;51.50;;
57331;SDS011;43164;50.908;18.092;2023-12-07T04:23:04;90.10;;;51.10;;
57331;SDS011;43164;50.908;18.092;2023-12-07T04:25:31;89.10;;;51.20;;
57331;SDS011;43164;50.908;18.092;2023-12-07T04:27:59;91.00;;;41.80;;
57331;SDS011;43164;50.908;18.092;2023-12-07T04:30:27;90.50;;;51.20;;
57331;SDS011;43164;50.908;18.092;2023-12-07T04:32:55;86.20;;;40.50;;
57331;SDS011;43164;50.908;18.092;2023-12-07T04:35:23;88.30;;;51.20;;
57331;SDS011;43164;50.908;18.092;2023-12-07T04:37:52;91.00;;;53.80;;
57331;SDS011;43164;50.908;18.092;2023-12-07T04:40:20;90.20;;;42.10;;
57331;SDS011;43164;50.908;18.092;2023-12-07T04:42:47;90.60;;;43.00;;
57331;SDS011;43164;50.908;18.092;2023-12-07T04:45:15;93.90;;;53.70;;
57331;SDS011;43164;50.908;18.092;2023-12-07T04:47:43;94.80;;;47.50;;
57331;SDS011;43164;50.908;18.092;2023-12-07T04:50:12;91.80;;;53.00;;
57331;SDS011;43164;50.908;18.092;2023-12-07T04:52:40;87.90;;;42.70;;
57331;SDS011;43164;50.908;18.092;2023-12-07T04:55:08;93.90;;;54.30;;
57331;SDS011;43164;50.908;18.092;2023-12-07T04:57:36;94.60;;;44.60;;
57331;SDS011;43164;50.908;18.092;2023-12-07T05:00:04;88.40;;;41.70;;
57331;SDS011;43164;50.908;18.092;2023-12-07T05:02:35;86.10;;;41.70;;
57331;SDS011;43164;50.908;18.092;2023-12-07T05:05:02;91.30;;;51.60;;
57331;SDS011;43164;50.908;18.092;2023-12-07T05:07:29;93.70;;;52.40;;
57331;SDS011;43164;50.908;18.092;2023-12-07T05:09:58;91.90;;;39.90;;
57331;SDS011;43164;50.908;18.092;2023-12-07T05:12:26;93.20;;;41.70;;
57331;SDS011;43164;50.908;18.092;2023-12-07T05:14:53;87.60;;;51.10;;
57331;SDS011;43164;50.908;18.092;2023-12-07T05:17:21;89.70;;;43.40;;
57331;SDS011;43164;50.908;18.092;2023-12-07T05:19:49;82.40;;;39.90;;
57331;SDS011;43164;50.908;18.092;2023-12-07T05:22:18;88.80;;;44.10;;
57331;SDS011;43164;50.908;18.092;2023-12-07T05:24:46;90.80;;;43.20;;
57331;SDS011;43164;50.908;18.092;2023-12-07T05:27:14;94.90;;;53.40;;
57331;SDS011;43164;50.908;18.092;2023-12-07T05:29:42;95.80;;;54.30;;
57331;SDS011;43164;50.908;18.092;2023-12-07T05:32:10;92.80;;;53.10;;
57331;SDS011;43164;50.908;18.092;2023-12-07T05:34:39;88.00;;;41.20;;
57331;SDS011;43164;50.908;18.092;2023-12-07T05:37:07;94.30;;;52.00;;
57331;SDS011;43164;50.908;18.092;2023-12-07T05:39:35;94.50;;;43.80;;
57331;SDS011;43164;50.908;18.092;2023-12-07T05:42:04;91.60;;;52.10;;
57331;SDS011;43164;50.908;18.092;2023-12-07T05:44:32;90.40;;;52.70;;
57331;SDS011;43164;50.908;18.092;2023-12-07T05:47:00;93.00;;;53.00;;
57331;SDS011;43164;50.908;18.092;2023-12-07T05:49:28;90.20;;;42.70;;
57331;SDS011;43164;50.908;18.092;2023-12-07T05:51:56;90.60;;;43.20;;
57331;SDS011;43164;50.908;18.092;2023-12-07T05:54:23;88.90;;;51.30;;
57331;SDS011;43164;50.908;18.092;2023-12-07T05:56:52;87.60;;;50.20;;
57331;SDS011;43164;50.908;18.092;2023-12-07T05:59:20;92.30;;;53.50;;
57331;SDS011;43164;50.908;18.092;2023-12-07T06:01:50;82.80;;;40.60;;
57331;SDS011;43164;50.908;18.092;2023-12-07T06:04:19;90.60;;;43.10;;
57331;SDS011;43164;50.908;18.092;2023-12-07T06:06:45;90.90;;;50.80;;
57331;SDS011;43164;50.908;18.092;2023-12-07T06:09:13;96.90;;;55.30;;
57331;SDS011;43164;50.908;18.092;2023-12-07T06:11:41;97.40;;;47.60;;
57331;SDS011;43164;50.908;18.092;2023-12-07T06:14:10;102.90;;;61.20;;
57331;SDS011;43164;50.908;18.092;2023-12-07T06:16:38;114.00;;;55.20;;
57331;SDS011;43164;50.908;18.092;2023-12-07T06:19:06;135.50;;;62.90;;
57331;SDS011;43164;50.908;18.092;2023-12-07T06:21:34;120.70;;;55.00;;
57331;SDS011;43164;50.908;18.092;2023-12-07T06:24:02;95.90;;;52.10;;
57331;SDS011;43164;50.908;18.092;2023-12-07T06:26:30;194.10;;;100.30;;
57331;SDS011;43164;50.908;18.092;2023-12-07T06:29:01;159.20;;;83.30;;
57331;SDS011;43164;50.908;18.092;2023-12-07T06:31:28;178.10;;;76.20;;
57331;SDS011;43164;50.908;18.092;2023-12-07T06:33:55;125.00;;;67.60;;
57331;SDS011;43164;50.908;18.092;2023-12-07T06:36:23;266.50;;;112.90;;
57331;SDS011;43164;50.908;18.092;2023-12-07T06:38:52;98.80;;;46.00;;
57331;SDS011;43164;50.908;18.092;2023-12-07T06:41:20;97.60;;;43.30;;
57331;SDS011;43164;50.908;18.092;2023-12-07T06:43:47;92.30;;;49.20;;
57331;SDS011;43164;50.908;18.092;2023-12-07T06:46:15;84.80;;;48.70;;
57331;SDS011;43164;50.908;18.092;2023-12-07T06:48:43;91.60;;;42.40;;
57331;SDS011;43164;50.908;18.092;2023-12-07T06:51:11;88.80;;;42.80;;
57331;SDS011;43164;50.908;18.092;2023-12-07T06:53:40;128.20;;;62.40;;
57331;SDS011;43164;50.908;18.092;2023-12-07T06:56:08;198.30;;;79.70;;
57331;SDS011;43164;50.908;18.092;2023-12-07T06:58:36;313.20;;;117.20;;
57331;SDS011;43164;50.908;18.092;2023-12-07T07:01:04;218.80;;;95.20;;
57331;SDS011;43164;50.908;18.092;2023-12-07T07:03:32;107.30;;;49.50;;
57331;SDS011;43164;50.908;18.092;2023-12-07T07:06:00;132.30;;;54.50;;
57331;SDS011;43164;50.908;18.092;2023-12-07T07:08:28;153.10;;;76.20;;
57331;SDS011;43164;50.908;18.092;2023-12-07T07:10:56;120.20;;;63.30;;
57331;SDS011;43164;50.908;18.092;2023-12-07T07:13:24;127.80;;;66.90;;
57331;SDS011;43164;50.908;18.092;2023-12-07T07:15:53;97.20;;;54.40;;
57331;SDS011;43164;50.908;18.092;2023-12-07T07:18:21;95.20;;;53.70;;
57331;SDS011;43164;50.908;18.092;2023-12-07T07:20:49;87.20;;;50.30;;
57331;SDS011;43164;50.908;18.092;2023-12-07T07:23:17;87.40;;;49.80;;
57331;SDS011;43164;50.908;18.092;2023-12-07T07:25:45;86.00;;;49.80;;
57331;SDS011;43164;50.908;18.092;2023-12-07T07:28:13;85.00;;;48.00;;
57331;SDS011;43164;50.908;18.092;2023-12-07T07:30:42;83.50;;;47.80;;
57331;SDS011;43164;50.908;18.092;2023-12-07T07:33:09;89.90;;;49.60;;
57331;SDS011;43164;50.908;18.092;2023-12-07T07:35:38;82.00;;;47.70;;
57331;SDS011;43164;50.908;18.092;2023-12-07T07:38:06;84.80;;;48.70;;
57331;SDS011;43164;50.908;18.092;2023-12-07T07:40:34;83.50;;;47.00;;
57331;SDS011;43164;50.908;18.092;2023-12-07T07:43:02;84.80;;;47.40;;
57331;SDS011;43164;50.908;18.092;2023-12-07T07:45:30;84.00;;;47.40;;
57331;SDS011;43164;50.908;18.092;2023-12-07T07:47:58;83.20;;;46.90;;
57331;SDS011;43164;50.908;18.092;2023-12-07T07:50:27;82.60;;;46.50;;
57331;SDS011;43164;50.908;18.092;2023-12-07T07:52:55;79.90;;;46.00;;
57331;SDS011;43164;50.908;18.092;2023-12-07T07:55:23;82.80;;;47.40;;
57331;SDS011;43164;50.908;18.092;2023-12-07T07:57:51;84.20;;;47.70;;
57331;SDS011;43164;50.908;18.092;2023-12-07T08:00:19;84.00;;;46.80;;
57331;SDS011;43164;50.908;18.092;2023-12-07T08:02:52;84.80;;;48.20;;
57331;SDS011;43164;50.908;18.092;2023-12-07T08:05:18;84.80;;;45.20;;
57331;SDS011;43164;50.908;18.092;2023-12-07T08:07:45;77.70;;;44.70;;
57331;SDS011;43164;50.908;18.092;2023-12-07T08:10:12;79.50;;;45.30;;
57331;SDS011;43164;50.908;18.092;2023-12-07T08:12:41;77.50;;;42.40;;
57331;SDS011;43164;50.908;18.092;2023-12-07T08:15:09;76.60;;;44.40;;
57331;SDS011;43164;50.908;18.092;2023-12-07T08:17:39;79.70;;;46.20;;
57331;SDS011;43164;50.908;18.092;2023-12-07T08:20:06;82.50;;;45.90;;
57331;SDS011;43164;50.908;18.092;2023-12-07T08:22:35;77.00;;;43.30;;
57331;SDS011;43164;50.908;18.092;2023-12-07T08:25:02;79.30;;;44.40;;
57331;SDS011;43164;50.908;18.092;2023-12-07T08:27:32;78.70;;;42.40;;
57331;SDS011;43164;50.908;18.092;2023-12-07T08:29:58;78.60;;;43.80;;
57331;SDS011;43164;50.908;18.092;2023-12-07T08:32:25;75.80;;;42.90;;
57331;SDS011;43164;50.908;18.092;2023-12-07T08:34:53;78.40;;;42.70;;
57331;SDS011;43164;50.908;18.092;2023-12-07T08:37:22;75.40;;;40.90;;
57331;SDS011;43164;50.908;18.092;2023-12-07T08:39:50;73.30;;;41.90;;
57331;SDS011;43164;50.908;18.092;2023-12-07T08:42:18;70.60;;;39.30;;
57331;SDS011;43164;50.908;18.092;2023-12-07T08:44:45;74.10;;;41.70;;
57331;SDS011;43164;50.908;18.092;2023-12-07T08:47:13;71.30;;;40.60;;
57331;SDS011;43164;50.908;18.092;2023-12-07T08:49:41;71.80;;;40.20;;
57331;SDS011;43164;50.908;18.092;2023-12-07T08:52:09;71.50;;;41.50;;
57331;SDS011;43164;50.908;18.092;2023-12-07T08:54:38;72.60;;;41.30;;
57331;SDS011;43164;50.908;18.092;2023-12-07T08:57:07;69.00;;;36.70;;
57331;SDS011;43164;50.908;18.092;2023-12-07T08:59:34;74.80;;;40.40;;
57331;SDS011;43164;50.908;18.092;2023-12-07T09:02:03;68.60;;;38.60;;
57331;SDS011;43164;50.908;18.092;2023-12-07T09:04:30;71.50;;;36.00;;
57331;SDS011;43164;50.908;18.092;2023-12-07T09:06:59;70.40;;;35.60;;
57331;SDS011;43164;50.908;18.092;2023-12-07T09:09:27;70.20;;;37.30;;
57331;SDS011;43164;50.908;18.092;2023-12-07T09:11:56;69.10;;;38.50;;
57331;SDS011;43164;50.908;18.092;2023-12-07T09:14:23;68.30;;;35.40;;
57331;SDS011;43164;50.908;18.092;2023-12-07T09:16:52;71.20;;;35.00;;
57331;SDS011;43164;50.908;18.092;2023-12-07T09:19:20;69.40;;;34.90;;
57331;SDS011;43164;50.908;18.092;2023-12-07T09:21:49;67.70;;;33.20;;
57331;SDS011;43164;50.908;18.092;2023-12-07T09:24:16;60.30;;;31.60;;
57331;SDS011;43164;50.908;18.092;2023-12-07T09:26:44;67.50;;;35.10;;
57331;SDS011;43164;50.908;18.092;2023-12-07T09:29:12;70.30;;;36.00;;
57331;SDS011;43164;50.908;18.092;2023-12-07T09:31:41;70.70;;;36.40;;
57331;SDS011;43164;50.908;18.092;2023-12-07T09:34:08;77.80;;;38.30;;
57331;SDS011;43164;50.908;18.092;2023-12-07T09:36:37;68.10;;;36.10;;
57331;SDS011;43164;50.908;18.092;2023-12-07T09:39:05;68.10;;;34.00;;
57331;SDS011;43164;50.908;18.092;2023-12-07T09:41:34;71.30;;;36.00;;
57331;SDS011;43164;50.908;18.092;2023-12-07T09:44:01;66.90;;;34.60;;
57331;SDS011;43164;50.908;18.092;2023-12-07T09:46:31;67.60;;;34.70;;
57331;SDS011;43164;50.908;18.092;2023-12-07T09:48:58;65.30;;;32.90;;
57331;SDS011;43164;50.908;18.092;2023-12-07T09:51:26;65.30;;;32.30;;
57331;SDS011;43164;50.908;18.092;2023-12-07T09:53:54;64.60;;;32.60;;
57331;SDS011;43164;50.908;18.092;2023-12-07T09:56:21;67.90;;;33.70;;
57331;SDS011;43164;50.908;18.092;2023-12-07T09:58:50;68.30;;;35.00;;
57331;SDS011;43164;50.908;18.092;2023-12-07T10:01:18;63.80;;;31.40;;
57331;SDS011;43164;50.908;18.092;2023-12-07T10:03:46;64.90;;;31.90;;
57331;SDS011;43164;50.908;18.092;2023-12-07T10:06:14;64.60;;;32.60;;
57331;SDS011;43164;50.908;18.092;2023-12-07T10:08:42;66.20;;;32.80;;
57331;SDS011;43164;50.908;18.092;2023-12-07T10:11:12;64.20;;;33.80;;
57331;SDS011;43164;50.908;18.092;2023-12-07T10:13:40;63.40;;;33.40;;
57331;SDS011;43164;50.908;18.092;2023-12-07T10:16:10;61.10;;;31.40;;
57331;SDS011;43164;50.908;18.092;2023-12-07T10:18:43;60.60;;;31.50;;
57331;SDS011;43164;50.908;18.092;2023-12-07T10:21:12;60.90;;;32.80;;
57331;SDS011;43164;50.908;18.092;2023-12-07T10:23:40;65.90;;;32.50;;
57331;SDS011;43164;50.908;18.092;2023-12-07T10:26:10;58.10;;;31.60;;
57331;SDS011;43164;50.908;18.092;2023-12-07T10:28:36;61.30;;;31.10;;
57331;SDS011;43164;50.908;18.092;2023-12-07T10:31:07;62.60;;;32.10;;
57331;SDS011;43164;50.908;18.092;2023-12-07T10:33:38;60.50;;;32.20;;
57331;SDS011;43164;50.908;18.092;2023-12-07T10:36:07;60.00;;;32.50;;
57331;SDS011;43164;50.908;18.092;2023-12-07T10:38:35;63.70;;;33.60;;
57331;SDS011;43164;50.908;18.092;2023-12-07T10:41:07;63.90;;;32.70;;
57331;SDS011;43164;50.908;18.092;2023-12-07T10:43:37;59.40;;;32.10;;
57331;SDS011;43164;50.908;18.092;2023-12-07T10:46:08;59.60;;;30.20;;
57331;SDS011;43164;50.908;18.092;2023-12-07T10:48:35;58.70;;;30.70;;
57331;SDS011;43164;50.908;18.092;2023-12-07T10:51:07;59.40;;;30.10;;
57331;SDS011;43164;50.908;18.092;2023-12-07T10:53:42;57.70;;;28.70;;
57331;SDS011;43164;50.908;18.092;2023-12-07T10:56:13;59.60;;;30.00;;
57331;SDS011;43164;50.908;18.092;2023-12-07T10:58:43;56.40;;;29.60;;
57331;SDS011;43164;50.908;18.092;2023-12-07T11:01:10;61.60;;;31.80;;
57331;SDS011;43164;50.908;18.092;2023-12-07T11:03:39;57.90;;;30.70;;
57331;SDS011;43164;50.908;18.092;2023-12-07T11:06:07;59.80;;;31.10;;
57331;SDS011;43164;50.908;18.092;2023-12-07T11:14:08;61.70;;;32.10;;
57331;SDS011;43164;50.908;18.092;2023-12-07T11:16:40;62.70;;;34.20;;
57331;SDS011;43164;50.908;18.092;2023-12-07T11:22:10;59.20;;;31.50;;
57331;SDS011;43164;50.908;18.092;2023-12-07T11:24:59;58.30;;;29.30;;
57331;SDS011;43164;50.908;18.092;2023-12-07T11:27:33;56.40;;;30.50;;
57331;SDS011;43164;50.908;18.092;2023-12-07T11:30:02;59.20;;;31.30;;
57331;SDS011;43164;50.908;18.092;2023-12-07T11:32:30;56.80;;;29.60;;
57331;SDS011;43164;50.908;18.092;2023-12-07T11:35:03;57.40;;;31.10;;
57331;SDS011;43164;50.908;18.092;2023-12-07T11:40:40;62.70;;;31.80;;
57331;SDS011;43164;50.908;18.092;2023-12-07T11:43:17;60.90;;;32.50;;
57331;SDS011;43164;50.908;18.092;2023-12-07T11:45:59;55.70;;;29.40;;
57331;SDS011;43164;50.908;18.092;2023-12-07T11:48:28;58.40;;;31.00;;
57331;SDS011;43164;50.908;18.092;2023-12-07T11:50:57;64.00;;;31.20;;
57331;SDS011;43164;50.908;18.092;2023-12-07T11:53:32;55.80;;;29.30;;
57331;SDS011;43164;50.908;18.092;2023-12-07T11:56:05;58.90;;;29.90;;
57331;SDS011;43164;50.908;18.092;2023-12-07T11:58:34;57.00;;;29.40;;
57331;SDS011;43164;50.908;18.092;2023-12-07T12:01:03;58.60;;;29.60;;
57331;SDS011;43164;50.908;18.092;2023-12-07T12:03:31;60.40;;;30.40;;
57331;SDS011;43164;50.908;18.092;2023-12-07T12:06:01;58.90;;;30.20;;
57331;SDS011;43164;50.908;18.092;2023-12-07T12:08:29;63.40;;;31.30;;
57331;SDS011;43164;50.908;18.092;2023-12-07T12:10:56;65.50;;;31.10;;
57331;SDS011;43164;50.908;18.092;2023-12-07T12:13:26;68.20;;;35.30;;
57331;SDS011;43164;50.908;18.092;2023-12-07T12:15:54;69.80;;;34.70;;
57331;SDS011;43164;50.908;18.092;2023-12-07T12:18:27;73.10;;;36.80;;
57331;SDS011;43164;50.908;18.092;2023-12-07T12:20:55;68.40;;;35.00;;
57331;SDS011;43164;50.908;18.092;2023-12-07T12:23:31;76.20;;;35.10;;
57331;SDS011;43164;50.908;18.092;2023-12-07T12:25:59;65.60;;;33.60;;
57331;SDS011;43164;50.908;18.092;2023-12-07T12:28:30;70.20;;;35.90;;
57331;SDS011;43164;50.908;18.092;2023-12-07T12:30:59;69.70;;;35.70;;
57331;SDS011;43164;50.908;18.092;2023-12-07T12:33:27;71.00;;;34.70;;
57331;SDS011;43164;50.908;18.092;2023-12-07T12:36:04;67.40;;;34.10;;
57331;SDS011;43164;50.908;18.092;2023-12-07T12:38:34;74.10;;;36.30;;
57331;SDS011;43164;50.908;18.092;2023-12-07T12:41:01;77.20;;;38.10;;
57331;SDS011;43164;50.908;18.092;2023-12-07T12:43:31;79.80;;;37.00;;
57331;SDS011;43164;50.908;18.092;2023-12-07T12:45:59;76.20;;;36.90;;
57331;SDS011;43164;50.908;18.092;2023-12-07T12:48:27;77.50;;;36.60;;
57331;SDS011;43164;50.908;18.092;2023-12-07T12:50:57;79.00;;;37.70;;
57331;SDS011;43164;50.908;18.092;2023-12-07T12:53:26;81.40;;;37.80;;
57331;SDS011;43164;50.908;18.092;2023-12-07T12:56:02;80.50;;;37.80;;
57331;SDS011;43164;50.908;18.092;2023-12-07T12:58:29;89.50;;;41.40;;
57331;SDS011;43164;50.908;18.092;2023-12-07T13:00:56;90.40;;;41.70;;
57331;SDS011;43164;50.908;18.092;2023-12-07T13:03:23;96.20;;;44.90;;
57331;SDS011;43164;50.908;18.092;2023-12-07T13:05:51;103.40;;;44.40;;
57331;SDS011;43164;50.908;18.092;2023-12-07T13:08:20;93.80;;;43.40;;
57331;SDS011;43164;50.908;18.092;2023-12-07T13:10:50;99.70;;;46.20;;
57331;SDS011;43164;50.908;18.092;2023-12-07T13:13:17;98.90;;;43.70;;
57331;SDS011;43164;50.908;18.092;2023-12-07T13:15:44;99.20;;;44.40;;
57331;SDS011;43164;50.908;18.092;2023-12-07T13:18:12;102.90;;;48.90;;
57331;SDS011;43164;50.908;18.092;2023-12-07T13:20:40;100.60;;;44.50;;
57331;SDS011;43164;50.908;18.092;2023-12-07T13:23:08;103.40;;;47.60;;
57331;SDS011;43164;50.908;18.092;2023-12-07T13:25:36;102.80;;;48.00;;
57331;SDS011;43164;50.908;18.092;2023-12-07T13:28:04;94.80;;;45.80;;
57331;SDS011;43164;50.908;18.092;2023-12-07T13:30:32;95.60;;;47.80;;
57331;SDS011;43164;50.908;18.092;2023-12-07T13:33:01;95.60;;;49.10;;
57331;SDS011;43164;50.908;18.092;2023-12-07T13:35:30;100.30;;;49.60;;
57331;SDS011;43164;50.908;18.092;2023-12-07T13:37:57;102.50;;;48.90;;
57331;SDS011;43164;50.908;18.092;2023-12-07T13:40:25;102.90;;;50.00;;
57331;SDS011;43164;50.908;18.092;2023-12-07T13:42:53;103.60;;;50.90;;
57331;SDS011;43164;50.908;18.092;2023-12-07T13:45:21;100.70;;;48.10;;
57331;SDS011;43164;50.908;18.092;2023-12-07T13:47:49;108.90;;;52.30;;
57331;SDS011;43164;50.908;18.092;2023-12-07T13:50:18;103.90;;;49.90;;
57331;SDS011;43164;50.908;18.092;2023-12-07T13:52:46;104.00;;;50.50;;
57331;SDS011;43164;50.908;18.092;2023-12-07T13:55:14;108.40;;;55.30;;
57331;SDS011;43164;50.908;18.092;2023-12-07T13:57:42;104.90;;;50.40;;
57331;SDS011;43164;50.908;18.092;2023-12-07T14:00:10;104.80;;;52.70;;
57331;SDS011;43164;50.908;18.092;2023-12-07T14:02:39;104.40;;;51.10;;
57331;SDS011;43164;50.908;18.092;2023-12-07T14:05:07;106.50;;;52.40;;
57331;SDS011;43164;50.908;18.092;2023-12-07T14:07:35;107.60;;;53.60;;
57331;SDS011;43164;50.908;18.092;2023-12-07T14:10:03;105.80;;;52.30;;
57331;SDS011;43164;50.908;18.092;2023-12-07T14:12:31;106.70;;;51.60;;
57331;SDS011;43164;50.908;18.092;2023-12-07T14:14:59;116.80;;;55.00;;
57331;SDS011;43164;50.908;18.092;2023-12-07T14:17:27;113.70;;;51.70;;
57331;SDS011;43164;50.908;18.092;2023-12-07T14:19:58;114.00;;;53.50;;
57331;SDS011;43164;50.908;18.092;2023-12-07T14:22:25;111.40;;;52.80;;
57331;SDS011;43164;50.908;18.092;2023-12-07T14:24:53;108.20;;;52.80;;
57331;SDS011;43164;50.908;18.092;2023-12-07T14:27:20;110.90;;;52.40;;